createdAt,value
2019-04-18T00:00:58.441Z,19.20
2019-04-18T00:03:04.227Z,17.77
2019-04-18T00:05:23.952Z,20.83
2019-04-18T00:07:26.565Z,17.57
2019-04-18T00:09:28.052Z,15.27
2019-04-18T00:11:29.616Z,17.13
2019-04-18T00:13:30.825Z,18.37
2019-04-18T00:15:38.941Z,18.87
2019-04-18T00:17:35.192Z,18.80
2019-04-18T00:19:36.740Z,20.07
2019-04-18T00:21:37.958Z,17.57
2019-04-18T00:23:39.195Z,18.23
2019-04-18T00:25:40.428Z,17.73
2019-04-18T00:27:41.810Z,19.93
2019-04-18T00:29:44.768Z,19.73
2019-04-18T00:31:46.001Z,19.30
2019-04-18T00:33:50.460Z,20.10
2019-04-18T00:35:50.437Z,19.17
2019-04-18T00:37:53.202Z,15.50
2019-04-18T00:39:55.881Z,17.40
2019-04-18T00:41:58.201Z,19.63
2019-04-18T00:44:01.155Z,16.53
2019-04-18T00:46:02.560Z,16.73
2019-04-18T00:48:03.769Z,14.97
2019-04-18T00:50:05.340Z,14.53
2019-04-18T00:52:06.929Z,13.90
2019-04-18T00:54:08.389Z,11.93
2019-04-18T00:56:09.713Z,12.37
2019-04-18T00:58:10.928Z,12.47
2019-04-18T01:00:14.109Z,11.53
2019-04-18T01:02:19.008Z,13.07
2019-04-18T01:04:26.789Z,12.80
2019-04-18T01:06:22.251Z,13.83
2019-04-18T01:08:23.453Z,12.50
2019-04-18T01:10:25.001Z,11.77
2019-04-18T01:12:28.882Z,12.13
2019-04-18T01:14:29.384Z,10.83
2019-04-18T01:16:30.949Z,10.23
2019-04-18T01:18:32.174Z,9.90
2019-04-18T01:20:33.422Z,10.27
2019-04-18T01:22:34.905Z,10.30
2019-04-18T01:24:36.384Z,10.27
2019-04-18T01:26:37.946Z,10.90
2019-04-18T01:28:39.156Z,10.03
2019-04-18T01:30:40.392Z,10.90
2019-04-18T01:32:41.981Z,11.93
2019-04-18T01:34:48.753Z,10.03
2019-04-18T01:36:46.656Z,11.83
2019-04-18T01:38:47.872Z,12.30
2019-04-18T01:40:52.569Z,11.93
2019-04-18T01:43:05.947Z,13.27
2019-04-18T01:45:15.748Z,11.30
2019-04-18T01:47:18.067Z,11.23
2019-04-18T01:49:19.277Z,11.00
2019-04-18T01:51:21.859Z,11.37
2019-04-18T01:53:24.997Z,10.60
2019-04-18T01:55:26.414Z,14.43
2019-04-18T01:57:28.565Z,13.23
2019-04-18T01:59:29.864Z,11.83
2019-04-18T02:01:31.080Z,11.90
2019-04-18T02:03:33.978Z,14.00
2019-04-18T02:05:35.432Z,13.47
2019-04-18T02:07:36.641Z,12.53
2019-04-18T02:09:37.869Z,11.97
2019-04-18T02:11:39.108Z,11.37
2019-04-18T02:13:40.334Z,13.90
2019-04-18T02:15:41.562Z,10.17
2019-04-18T02:17:43.089Z,8.90
2019-04-18T02:19:44.319Z,11.53
2019-04-18T02:21:45.904Z,11.13
2019-04-18T02:23:47.267Z,13.70
2019-04-18T02:25:48.744Z,10.20
2019-04-18T02:27:50.353Z,14.00
2019-04-18T02:29:51.881Z,8.87
2019-04-18T02:31:53.116Z,8.97
2019-04-18T02:33:54.976Z,8.73
2019-04-18T02:35:58.624Z,10.10
2019-04-18T02:38:00.345Z,9.20
2019-04-18T02:40:02.892Z,10.30
2019-04-18T02:42:05.012Z,9.93
2019-04-18T02:44:06.376Z,10.40
2019-04-18T02:46:10.404Z,9.47
2019-04-18T02:48:11.565Z,10.23
2019-04-18T02:50:13.221Z,12.60
2019-04-18T02:52:14.701Z,11.23
2019-04-18T02:54:15.957Z,9.70
2019-04-18T02:56:27.054Z,9.57
2019-04-18T02:58:37.201Z,10.80
2019-04-18T03:00:58.680Z,10.97
2019-04-18T03:03:10.631Z,10.43
2019-04-18T03:05:12.406Z,11.20
2019-04-18T03:07:13.680Z,14.07
2019-04-18T03:09:14.920Z,10.87
2019-04-18T03:11:18.837Z,11.80
2019-04-18T03:13:19.940Z,10.57
2019-04-18T03:15:21.157Z,12.90
2019-04-18T03:17:22.400Z,12.30
2019-04-18T03:19:23.636Z,10.47
2019-04-18T03:21:26.651Z,11.90
2019-04-18T03:23:28.135Z,13.33
2019-04-18T03:25:29.376Z,12.33
2019-04-18T03:27:31.108Z,13.20
2019-04-18T03:29:34.089Z,11.10
2019-04-18T03:31:35.314Z,11.80
2019-04-18T03:33:36.534Z,12.50
2019-04-18T03:35:48.604Z,12.87
2019-04-18T03:37:40.880Z,15.40
2019-04-18T03:39:42.437Z,11.60
2019-04-18T03:41:43.685Z,11.43
2019-04-18T03:43:45.278Z,12.00
2019-04-18T03:45:55.645Z,11.70
2019-04-18T03:48:00.234Z,14.77
2019-04-18T03:50:01.262Z,12.80
2019-04-18T03:52:02.781Z,12.30
2019-04-18T03:54:07.234Z,12.73
2019-04-18T03:56:07.662Z,12.53
2019-04-18T03:58:11.110Z,14.17
2019-04-18T04:00:12.219Z,15.50
2019-04-18T04:02:13.521Z,13.23
2019-04-18T04:04:21.173Z,11.57
2019-04-18T04:06:20.823Z,13.03
2019-04-18T04:08:21.013Z,11.57
2019-04-18T04:10:22.568Z,14.47
2019-04-18T04:12:27.632Z,12.53
2019-04-18T04:14:27.484Z,15.20
2019-04-18T04:16:31.010Z,16.70
2019-04-18T04:18:51.173Z,14.37
2019-04-18T04:20:55.167Z,15.17
2019-04-18T04:22:55.536Z,13.47
2019-04-18T04:24:56.748Z,12.83
2019-04-18T04:26:57.998Z,15.83
2019-04-18T04:29:01.423Z,14.07
2019-04-18T04:31:02.736Z,16.83
2019-04-18T04:33:04.123Z,17.03
2019-04-18T04:35:05.579Z,13.50
2019-04-18T04:37:08.418Z,14.43
2019-04-18T04:39:10.103Z,13.83
2019-04-18T04:41:13.959Z,13.80
2019-04-18T04:43:19.351Z,17.00
2019-04-18T04:45:17.868Z,20.07
2019-04-18T04:47:35.284Z,17.37
2019-04-18T04:49:36.860Z,16.40
2019-04-18T04:51:46.437Z,17.23
2019-04-18T04:53:51.217Z,15.10
2019-04-18T04:55:53.157Z,16.00
2019-04-18T04:58:02.965Z,17.07
2019-04-18T05:00:15.616Z,18.57
2019-04-18T05:02:17.309Z,18.00
2019-04-18T05:04:21.234Z,16.90
2019-04-18T05:06:35.538Z,16.47
2019-04-18T05:08:26.118Z,16.90
2019-04-18T05:10:28.897Z,16.60
2019-04-18T05:12:30.464Z,18.80
2019-04-18T05:14:32.028Z,18.67
2019-04-18T05:16:52.359Z,20.23
2019-04-18T05:18:52.149Z,17.27
2019-04-18T05:20:53.380Z,19.00
2019-04-18T05:22:55.054Z,17.17
2019-04-18T05:24:56.560Z,14.60
2019-04-18T05:26:58.101Z,16.40
2019-04-18T05:28:59.667Z,16.87
2019-04-18T05:31:01.227Z,14.60
2019-04-18T05:33:03.728Z,16.30
2019-04-18T05:35:05.881Z,18.90
2019-04-18T05:37:12.560Z,17.13
2019-04-18T05:39:10.548Z,20.67
2019-04-18T05:41:13.666Z,17.60
2019-04-18T05:43:14.910Z,17.20
2019-04-18T05:45:16.433Z,18.93
2019-04-18T05:47:46.591Z,19.10
2019-04-18T05:49:54.961Z,17.03
2019-04-18T05:52:03.162Z,16.53
2019-04-18T05:54:14.473Z,16.73
2019-04-18T05:56:15.716Z,16.40
2019-04-18T05:58:20.532Z,16.97
2019-04-18T06:00:32.034Z,16.63
2019-04-18T06:02:54.215Z,16.77
2019-04-18T06:05:18.221Z,14.23
2019-04-18T06:07:35.016Z,16.60
2019-04-18T06:09:42.444Z,15.90
2019-04-18T06:11:44.572Z,16.70
2019-04-18T06:13:49.495Z,14.80
2019-04-18T06:16:07.631Z,16.27
2019-04-18T06:18:21.368Z,14.83
2019-04-18T06:20:30.137Z,16.60
2019-04-18T06:22:29.998Z,14.90
2019-04-18T06:24:38.621Z,18.13
2019-04-18T06:27:06.285Z,15.77
2019-04-18T06:29:31.313Z,15.37
2019-04-18T06:31:47.742Z,14.77
2019-04-18T06:33:49.459Z,18.80
2019-04-18T06:35:50.881Z,14.90
2019-04-18T06:37:52.896Z,14.03
2019-04-18T06:39:57.558Z,14.73
2019-04-18T06:42:04.637Z,14.53
2019-04-18T06:44:07.634Z,17.57
2019-04-18T06:46:11.081Z,14.67
2019-04-18T06:48:13.113Z,13.43
2019-04-18T06:50:17.465Z,16.90
2019-04-18T06:52:17.776Z,15.93
2019-04-18T06:54:19.088Z,15.03
2019-04-18T06:56:20.332Z,19.10
2019-04-18T06:58:34.701Z,15.60
2019-04-18T07:00:28.752Z,16.40
2019-04-18T07:02:28.368Z,16.23
2019-04-18T07:04:30.038Z,16.60
2019-04-18T07:06:33.443Z,15.60
2019-04-18T07:08:59.633Z,15.33
2019-04-18T07:11:04.740Z,13.70
2019-04-18T07:13:09.203Z,14.50
2019-04-18T07:15:10.940Z,14.20
2019-04-18T07:17:14.493Z,15.13
2019-04-18T07:19:33.218Z,12.93
2019-04-18T07:21:40.028Z,14.27
2019-04-18T07:23:43.305Z,15.50
2019-04-18T07:25:44.541Z,13.80
2019-04-18T07:27:47.233Z,14.70
2019-04-18T07:29:49.152Z,14.97
2019-04-18T07:31:50.665Z,14.67
2019-04-18T07:33:51.896Z,14.90
2019-04-18T07:35:53.795Z,11.73
2019-04-18T07:37:55.023Z,13.10
2019-04-18T07:39:56.233Z,16.13
2019-04-18T07:41:57.745Z,15.20
2019-04-18T07:43:58.960Z,13.30
2019-04-18T07:46:00.365Z,15.40
2019-04-18T07:48:01.576Z,14.53
2019-04-18T07:50:03.133Z,13.00
2019-04-18T07:52:04.372Z,14.50
2019-04-18T07:54:05.682Z,13.00
2019-04-18T07:56:08.634Z,11.47
2019-04-18T07:58:10.339Z,19.10
2019-04-18T08:00:13.887Z,13.03
2019-04-18T08:02:15.220Z,11.73
2019-04-18T08:04:17.002Z,12.77
2019-04-18T08:06:23.070Z,12.97
2019-04-18T08:08:21.622Z,12.20
2019-04-18T08:10:26.142Z,11.17
2019-04-18T08:12:28.783Z,11.30
2019-04-18T08:14:29.797Z,11.03
2019-04-18T08:16:31.039Z,12.70
2019-04-18T08:18:32.261Z,12.23
2019-04-18T08:20:33.885Z,13.70
2019-04-18T08:22:35.459Z,11.00
2019-04-18T08:24:36.771Z,10.80
2019-04-18T08:26:38.036Z,10.73
2019-04-18T08:28:39.245Z,13.50
2019-04-18T08:30:40.489Z,13.77
2019-04-18T08:32:41.738Z,12.27
2019-04-18T08:34:43.245Z,11.37
2019-04-18T08:36:46.041Z,12.33
2019-04-18T08:39:08.400Z,13.77
2019-04-18T08:41:14.925Z,12.30
2019-04-18T08:43:38.491Z,11.87
2019-04-18T08:45:42.483Z,9.80
2019-04-18T08:47:45.972Z,13.00
2019-04-18T08:49:50.506Z,11.47
2019-04-18T08:52:09.924Z,8.77
2019-04-18T08:54:25.436Z,9.73
2019-04-18T08:56:31.436Z,9.87
2019-04-18T08:58:32.474Z,12.07
2019-04-18T09:00:33.706Z,11.00
2019-04-18T09:02:35.268Z,11.60
2019-04-18T09:04:36.824Z,12.17
2019-04-18T09:06:38.651Z,10.40
2019-04-18T09:08:40.420Z,9.13
2019-04-18T09:10:44.096Z,9.97
2019-04-18T09:12:46.124Z,9.57
2019-04-18T09:14:48.708Z,11.30
2019-04-18T09:16:50.552Z,9.27
2019-04-18T09:18:53.460Z,9.75
2019-04-18T09:20:54.908Z,9.50
2019-04-18T09:22:56.710Z,9.37
2019-04-18T09:24:58.902Z,12.07
2019-04-18T09:27:00.876Z,10.35
2019-04-18T09:29:02.233Z,8.60
2019-04-18T09:31:03.823Z,8.38
2019-04-18T09:33:05.328Z,9.20
2019-04-18T09:35:06.783Z,10.63
2019-04-18T09:37:10.297Z,9.20
2019-04-18T09:39:12.701Z,9.53
2019-04-18T09:41:14.525Z,8.33
2019-04-18T09:43:23.532Z,8.38
2019-04-18T09:45:29.259Z,9.47
2019-04-18T09:47:22.323Z,9.23
2019-04-18T09:49:24.016Z,10.23
2019-04-18T09:51:27.069Z,8.83
2019-04-18T09:53:30.920Z,9.48
2019-04-18T09:55:32.053Z,9.10
2019-04-18T09:57:33.648Z,11.55
2019-04-18T09:59:35.150Z,11.90
2019-04-18T10:01:36.368Z,9.90
2019-04-18T10:03:37.911Z,10.58
2019-04-18T10:05:39.156Z,9.83
2019-04-18T10:07:41.244Z,9.35
2019-04-18T10:09:42.486Z,9.83
2019-04-18T10:11:43.708Z,8.53
2019-04-18T10:13:44.940Z,12.03
2019-04-18T10:15:57.727Z,10.55
2019-04-18T10:17:49.995Z,8.35
2019-04-18T10:19:53.155Z,10.63
2019-04-18T10:22:05.534Z,9.90
2019-04-18T10:24:06.750Z,11.78
2019-04-18T10:26:26.101Z,11.70
2019-04-18T10:28:27.320Z,9.25
2019-04-18T10:30:35.424Z,10.20
2019-04-18T10:32:36.652Z,9.65
2019-04-18T10:34:37.876Z,9.27
2019-04-18T10:36:39.218Z,9.28
2019-04-18T10:38:40.440Z,11.18
2019-04-18T10:40:41.976Z,10.28
2019-04-18T10:42:43.206Z,9.33
2019-04-18T10:44:44.734Z,15.63
2019-04-18T10:46:46.303Z,10.43
2019-04-18T10:48:47.515Z,9.85
2019-04-18T10:50:48.996Z,11.65
2019-04-18T10:52:50.876Z,11.15
2019-04-18T10:54:52.116Z,10.58
2019-04-18T10:56:53.668Z,10.82
2019-04-18T10:58:54.897Z,11.35
2019-04-18T11:00:56.112Z,10.55
2019-04-18T11:02:57.364Z,9.00
2019-04-18T11:04:58.605Z,11.70
2019-04-18T11:06:59.853Z,12.43
2019-04-18T11:09:01.093Z,8.98
2019-04-18T11:11:02.583Z,9.08
2019-04-18T11:13:04.580Z,10.95
2019-04-18T11:15:06.259Z,10.55
2019-04-18T11:17:07.964Z,12.15
2019-04-18T11:19:09.628Z,11.33
2019-04-18T11:21:10.900Z,11.48
2019-04-18T11:23:12.145Z,8.30
2019-04-18T11:25:13.365Z,13.65
2019-04-18T11:27:14.590Z,8.93
2019-04-18T11:29:16.180Z,9.68
2019-04-18T11:31:18.066Z,9.30
2019-04-18T11:33:19.440Z,11.48
2019-04-18T11:35:20.669Z,8.85
2019-04-18T11:37:22.188Z,9.30
2019-04-18T11:39:25.161Z,9.10
2019-04-18T11:41:26.580Z,10.32
2019-04-18T11:43:28.144Z,9.90
2019-04-18T11:45:29.401Z,12.50
2019-04-18T11:47:30.717Z,10.13
2019-04-18T11:49:32.929Z,9.95
2019-04-18T11:51:34.308Z,8.95
2019-04-18T11:53:35.528Z,9.15
2019-04-18T11:55:36.773Z,9.93
2019-04-18T11:57:38.612Z,10.03
2019-04-18T11:59:46.080Z,8.93
2019-04-18T12:01:48.156Z,11.22
2019-04-18T12:04:07.278Z,10.23
2019-04-18T12:06:08.525Z,12.05
2019-04-18T12:08:09.950Z,11.50
2019-04-18T12:10:12.847Z,10.23
2019-04-18T12:12:14.113Z,10.75
2019-04-18T12:14:15.348Z,8.75
2019-04-18T12:16:16.580Z,9.45
2019-04-18T12:18:17.805Z,8.98
2019-04-18T12:20:19.008Z,11.70
2019-04-18T12:22:20.581Z,8.78
2019-04-18T12:24:21.801Z,10.43
2019-04-18T12:26:23.020Z,11.25
2019-04-18T12:28:24.275Z,10.25
2019-04-18T12:30:25.812Z,10.40
2019-04-18T12:32:27.055Z,11.30
2019-04-18T12:34:28.265Z,11.33
2019-04-18T12:36:29.485Z,9.90
2019-04-18T12:38:30.728Z,7.28
2019-04-18T12:40:31.940Z,11.93
2019-04-18T12:42:34.064Z,8.73
2019-04-18T12:44:35.290Z,8.80
2019-04-18T12:46:36.503Z,10.78
2019-04-18T12:48:37.939Z,9.90
2019-04-18T12:50:39.265Z,8.93
2019-04-18T12:52:40.492Z,10.53
2019-04-18T12:54:41.751Z,8.25
2019-04-18T12:56:42.964Z,9.63
2019-04-18T12:58:44.176Z,8.95
2019-04-18T13:00:45.413Z,10.03
2019-04-18T13:02:46.740Z,8.40
2019-04-18T13:04:48.328Z,9.50
2019-04-18T13:06:50.014Z,8.90
2019-04-18T13:08:58.797Z,10.03
2019-04-18T13:11:28.599Z,8.60
2019-04-18T13:13:52.813Z,10.35
2019-04-18T13:16:04.258Z,9.20
2019-04-18T13:18:08.473Z,9.10
2019-04-18T13:20:10.824Z,8.30
2019-04-18T13:22:12.060Z,12.37
2019-04-18T13:24:16.951Z,7.25
2019-04-18T13:26:16.536Z,15.13
2019-04-18T13:28:37.632Z,9.08
2019-04-18T13:30:39.280Z,8.33
2019-04-18T13:32:40.493Z,9.48
2019-04-18T13:34:42.165Z,7.33
2019-04-18T13:36:43.823Z,7.85
2019-04-18T13:38:45.297Z,8.37
2019-04-18T13:40:46.909Z,9.67
2019-04-18T13:42:48.164Z,7.90
2019-04-18T13:44:49.388Z,8.07
2019-04-18T13:46:53.123Z,8.37
2019-04-18T13:48:53.736Z,8.53
2019-04-18T13:50:54.974Z,6.97
2019-04-18T13:52:56.837Z,6.58
2019-04-18T13:54:59.091Z,6.55
2019-04-18T13:57:00.884Z,7.87
2019-04-18T13:59:02.390Z,7.60
2019-04-18T14:01:03.825Z,7.35
2019-04-18T14:03:05.512Z,7.03
2019-04-18T14:05:06.949Z,7.03
2019-04-18T14:07:08.460Z,6.20
2019-04-18T14:09:09.679Z,9.10
2019-04-18T14:11:14.548Z,7.13
2019-04-18T14:13:14.389Z,7.90
2019-04-18T14:15:15.604Z,9.00
2019-04-18T14:17:16.888Z,8.03
2019-04-18T14:19:18.352Z,7.75
2019-04-18T14:21:19.960Z,6.25
2019-04-18T14:23:21.189Z,7.78
2019-04-18T14:25:22.417Z,10.00
2019-04-18T14:27:23.661Z,7.80
2019-04-18T14:29:24.888Z,7.77
2019-04-18T14:31:26.101Z,8.08
2019-04-18T14:33:27.440Z,7.70
2019-04-18T14:35:28.648Z,11.37
2019-04-18T14:37:29.875Z,10.80
2019-04-18T14:39:31.089Z,8.00
2019-04-18T14:41:35.282Z,8.38
2019-04-18T14:43:35.544Z,7.62
2019-04-18T14:45:36.780Z,8.10
2019-04-18T14:47:38.347Z,7.65
2019-04-18T14:49:39.913Z,7.70
2019-04-18T14:51:41.431Z,8.08
2019-04-18T14:53:43.283Z,5.62
2019-04-18T14:55:45.257Z,7.85
2019-04-18T14:57:46.465Z,9.43
2019-04-18T14:59:48.167Z,7.65
2019-04-18T15:01:51.284Z,6.17
2019-04-18T15:03:52.617Z,8.75
2019-04-18T15:05:53.856Z,6.50
2019-04-18T15:07:55.077Z,7.15
2019-04-18T15:09:56.621Z,5.75
2019-04-18T15:11:57.847Z,6.85
2019-04-18T15:13:59.389Z,6.23
2019-04-18T15:16:01.300Z,6.22
2019-04-18T15:18:02.538Z,6.73
2019-04-18T15:20:05.719Z,5.15
2019-04-18T15:22:09.017Z,5.67
2019-04-18T15:24:10.521Z,5.73
2019-04-18T15:26:12.065Z,6.35
2019-04-18T15:28:13.284Z,9.98
2019-04-18T15:30:14.560Z,8.18
2019-04-18T15:32:15.917Z,8.03
2019-04-18T15:34:17.132Z,6.08
2019-04-18T15:36:21.957Z,29.27
2019-04-18T15:38:21.692Z,7.53
2019-04-18T15:40:25.259Z,6.83
2019-04-18T15:42:27.168Z,6.87
2019-04-18T15:44:28.497Z,7.17
2019-04-18T15:46:38.709Z,6.13
2019-04-18T15:48:39.948Z,6.50
2019-04-18T15:50:41.161Z,5.30
2019-04-18T15:52:42.684Z,5.22
2019-04-18T15:54:43.905Z,5.12
2019-04-18T15:56:45.153Z,6.35
2019-04-18T15:58:46.630Z,4.60
2019-04-18T16:00:48.278Z,7.83
2019-04-18T16:02:49.512Z,7.25
2019-04-18T16:04:50.771Z,10.13
2019-04-18T16:06:51.985Z,7.00
2019-04-18T16:08:53.225Z,4.47
2019-04-18T16:10:54.797Z,6.33
2019-04-18T16:12:56.024Z,5.47
2019-04-18T16:15:00.876Z,6.37
2019-04-18T16:17:02.108Z,10.70
2019-04-18T16:19:03.336Z,5.75
2019-04-18T16:21:04.871Z,5.83
2019-04-18T16:23:06.349Z,5.70
2019-04-18T16:25:08.621Z,6.25
2019-04-18T16:27:09.884Z,8.40
2019-04-18T16:29:11.133Z,6.22
2019-04-18T16:31:12.952Z,10.97
2019-04-18T16:33:14.233Z,6.37
2019-04-18T16:35:16.412Z,17.17
2019-04-18T16:37:18.301Z,10.43
2019-04-18T16:39:20.032Z,6.40
2019-04-18T16:41:21.574Z,5.00
2019-04-18T16:43:22.788Z,7.05
2019-04-18T16:45:24.029Z,7.03
2019-04-18T16:47:25.973Z,4.67
2019-04-18T16:49:27.551Z,4.73
2019-04-18T16:51:28.860Z,4.67
2019-04-18T16:53:32.523Z,4.85
2019-04-18T16:55:33.755Z,4.17
2019-04-18T16:57:35.684Z,4.30
2019-04-18T16:59:36.908Z,7.43
2019-04-18T17:01:38.128Z,5.30
2019-04-18T17:03:51.069Z,11.90
2019-04-18T17:05:42.836Z,4.83
2019-04-18T17:07:44.174Z,6.20
2019-04-18T17:09:45.405Z,5.35
2019-04-18T17:11:46.664Z,4.50
2019-04-18T17:13:48.136Z,5.15
2019-04-18T17:15:49.356Z,6.13
2019-04-18T17:17:50.597Z,5.20
2019-04-18T17:19:51.816Z,6.37
2019-04-18T17:21:53.293Z,5.87
2019-04-18T17:23:54.772Z,6.53
2019-04-18T17:25:56.333Z,6.33
2019-04-18T17:27:57.884Z,6.73
2019-04-18T17:29:59.160Z,5.60
2019-04-18T17:32:00.485Z,6.97
2019-04-18T17:34:07.825Z,8.75
2019-04-18T17:36:19.677Z,5.47
2019-04-18T17:38:32.516Z,7.27
2019-04-18T17:40:24.558Z,7.22
2019-04-18T17:42:14.876Z,4.67
2019-04-18T17:44:16.113Z,5.57
2019-04-18T17:46:20.642Z,5.03
2019-04-18T17:48:20.481Z,4.77
2019-04-18T17:50:22.110Z,7.13
2019-04-18T17:52:36.213Z,4.00
2019-04-18T17:54:42.179Z,6.40
2019-04-18T17:56:36.938Z,6.87
2019-04-18T17:58:33.356Z,5.47
2019-04-18T18:00:35.137Z,7.83
2019-04-18T18:02:37.728Z,4.77
2019-04-18T18:04:45.150Z,6.17
2019-04-18T18:06:51.231Z,5.90
2019-04-18T18:08:52.384Z,5.10
2019-04-18T18:10:48.863Z,4.37
2019-04-18T18:12:50.236Z,6.33
2019-04-18T18:14:56.300Z,10.67
2019-04-18T18:17:02.092Z,5.67
2019-04-18T18:18:59.178Z,11.23
2019-04-18T18:21:05.256Z,5.50
2019-04-18T18:23:05.856Z,7.22
2019-04-18T18:25:07.023Z,7.27
2019-04-18T18:27:09.098Z,6.43
2019-04-18T18:29:12.273Z,6.40
2019-04-18T18:31:39.046Z,6.97
2019-04-18T18:33:41.244Z,6.43
2019-04-18T18:35:57.864Z,8.07
2019-04-18T18:37:55.813Z,8.30
2019-04-18T18:39:52.282Z,7.07
2019-04-18T18:41:55.562Z,8.77
2019-04-18T18:44:01.401Z,9.87
2019-04-18T18:45:59.504Z,8.27
2019-04-18T18:48:03.323Z,7.27
2019-04-18T18:50:04.371Z,9.07
2019-04-18T18:52:07.605Z,14.27
2019-04-18T18:54:09.395Z,11.05
2019-04-18T18:56:16.356Z,10.40
2019-04-18T18:58:21.905Z,11.10
2019-04-18T19:00:18.599Z,11.97
2019-04-18T19:02:23.129Z,11.17
2019-04-18T19:04:23.876Z,13.63
2019-04-18T19:06:35.955Z,10.33
2019-04-18T19:09:04.320Z,8.40
2019-04-18T19:11:03.796Z,12.07
2019-04-18T19:13:05.822Z,14.17
2019-04-18T19:14:43.475Z,9.50
2019-04-18T19:16:48.169Z,14.70
2019-04-18T19:18:45.279Z,10.77
2019-04-18T19:20:47.481Z,9.73
2019-04-18T19:22:49.916Z,10.67
2019-04-18T19:24:56.412Z,11.37
2019-04-18T19:27:05.102Z,12.07
2019-04-18T19:29:10.018Z,13.22
2019-04-18T19:31:01.248Z,9.63
2019-04-18T19:33:06.944Z,11.68
2019-04-18T19:35:25.844Z,12.37
2019-04-18T19:37:24.426Z,9.70
2019-04-18T19:39:34.113Z,11.77
2019-04-18T19:41:30.802Z,11.73
2019-04-18T19:43:19.886Z,11.07
2019-04-18T19:45:21.851Z,12.50
2019-04-18T19:47:24.920Z,12.97
2019-04-18T19:49:26.284Z,11.37
2019-04-18T19:51:30.762Z,9.47
2019-04-18T19:53:34.432Z,12.30
2019-04-18T19:55:34.904Z,9.60
2019-04-18T19:57:37.280Z,9.60
2019-04-18T19:59:40.426Z,11.80
2019-04-18T20:01:42.318Z,10.93
2019-04-18T20:03:44.549Z,12.33
2019-04-18T20:08:02.901Z,9.20
2019-04-18T20:10:05.201Z,8.53
2019-04-18T20:12:04.106Z,11.07
2019-04-18T20:14:09.080Z,9.03
2019-04-18T20:16:03.247Z,8.77
2019-04-18T20:18:05.030Z,9.23
2019-04-18T20:20:07.291Z,13.30
2019-04-18T20:22:11.140Z,11.57
2019-04-18T20:24:11.752Z,11.20
2019-04-18T20:26:13.833Z,10.27
2019-04-18T20:28:16.298Z,9.33
2019-04-18T20:30:22.546Z,10.03
2019-04-18T20:32:25.573Z,12.57
2019-04-18T20:34:24.655Z,11.43
2019-04-18T20:36:40.299Z,14.83
2019-04-18T20:38:34.156Z,9.67
2019-04-18T20:40:56.173Z,11.07
2019-04-18T20:42:50.756Z,10.10
2019-04-18T20:44:47.645Z,12.87
2019-04-18T20:46:57.388Z,11.97
2019-04-18T20:49:04.604Z,12.70
2019-04-18T20:50:56.617Z,10.17
2019-04-18T20:53:12.231Z,10.90
2019-04-18T20:55:17.548Z,12.47
2019-04-18T20:56:58.259Z,13.33
2019-04-18T20:59:07.062Z,10.63
2019-04-18T21:01:03.345Z,10.43
2019-04-18T21:03:06.533Z,12.20
2019-04-18T21:05:07.707Z,12.63
2019-04-18T21:07:23.542Z,10.87
2019-04-18T21:09:21.949Z,12.37
2019-04-18T21:11:15.849Z,13.20
2019-04-18T21:13:17.113Z,9.67
2019-04-18T21:15:18.627Z,13.27
2019-04-18T21:17:22.294Z,10.67
2019-04-18T21:19:22.981Z,10.87
2019-04-18T21:21:24.208Z,12.87
2019-04-18T21:23:26.691Z,10.07
2019-04-18T21:25:28.419Z,10.00
2019-04-18T21:27:37.071Z,8.37
2019-04-18T21:29:33.809Z,10.03
2019-04-18T21:31:36.616Z,8.87
2019-04-18T21:33:39.881Z,9.80
2019-04-18T21:35:42.534Z,9.37
2019-04-18T21:37:57.196Z,9.13
2019-04-18T21:39:48.467Z,9.77
2019-04-18T21:41:50.085Z,9.50
2019-04-18T21:43:57.757Z,8.23
2019-04-18T21:45:55.465Z,9.27
2019-04-18T21:47:57.183Z,8.93
2019-04-18T21:49:59.366Z,8.27
2019-04-18T21:52:02.345Z,7.87
2019-04-18T21:54:06.186Z,9.17
2019-04-18T21:56:10.095Z,9.40
2019-04-18T21:58:25.673Z,9.40
2019-04-18T22:00:23.560Z,7.33
2019-04-18T22:02:27.923Z,9.63
2019-04-18T22:04:29.834Z,8.17
2019-04-18T22:06:34.492Z,6.90
2019-04-18T22:08:30.940Z,6.63
2019-04-18T22:10:34.992Z,6.33
2019-04-18T22:12:42.064Z,7.20
2019-04-18T22:14:39.393Z,7.67
2019-04-18T22:16:41.797Z,8.50
2019-04-18T22:18:43.774Z,8.90
2019-04-18T22:20:46.187Z,8.50
2019-04-18T22:22:48.712Z,8.83
2019-04-18T22:24:55.878Z,12.43
2019-04-18T22:26:53.633Z,9.47
2019-04-18T22:28:54.891Z,8.80
2019-04-18T22:30:56.490Z,11.03
2019-04-18T22:33:16.646Z,7.10
2019-04-18T22:35:18.250Z,7.67
2019-04-18T22:37:27.753Z,8.03
2019-04-18T22:39:26.082Z,8.83
2019-04-18T22:41:34.488Z,12.70
2019-04-18T22:43:35.392Z,8.30
2019-04-18T22:45:41.230Z,7.77
2019-04-18T22:47:39.299Z,8.63
2019-04-18T22:49:39.669Z,10.83
2019-04-18T22:51:47.914Z,13.50
2019-04-18T22:53:49.062Z,8.67
2019-04-18T22:55:48.660Z,7.43
2019-04-18T22:57:51.865Z,8.53
2019-04-18T22:59:55.603Z,8.50
2019-04-18T23:02:00.875Z,10.23
2019-04-18T23:04:01.420Z,11.83
2019-04-18T23:06:03.185Z,7.87
2019-04-18T23:08:12.654Z,9.10
2019-04-18T23:10:08.133Z,7.87
2019-04-18T23:12:10.607Z,7.47
2019-04-18T23:14:15.340Z,7.97
2019-04-18T23:16:19.116Z,7.73
2019-04-18T23:18:23.403Z,6.77
2019-04-18T23:20:24.167Z,9.20
2019-04-18T23:22:28.919Z,4.90
2019-04-18T23:24:31.832Z,5.87
2019-04-18T23:26:32.507Z,5.53
2019-04-18T23:28:33.947Z,5.33
2019-04-18T23:30:36.015Z,5.53
2019-04-18T23:32:39.497Z,5.83
2019-04-18T23:34:44.747Z,5.90
2019-04-18T23:36:49.041Z,5.50
2019-04-18T23:38:48.882Z,5.63
2019-04-18T23:40:50.249Z,6.23
2019-04-18T23:42:54.316Z,6.00
2019-04-18T23:44:58.580Z,6.00
2019-04-18T23:47:04.385Z,9.13
2019-04-18T23:49:02.826Z,6.80
2019-04-18T23:51:04.568Z,7.17
2019-04-18T23:53:07.906Z,6.03
2019-04-18T23:55:13.678Z,7.50
2019-04-18T23:57:17.309Z,7.53
2019-04-18T23:59:16.804Z,6.00
